createdAt,value
2022-08-09T00:01:16.587Z,3.10
2022-08-09T00:04:08.481Z,2.30
2022-08-09T00:06:37.805Z,2.40
2022-08-09T00:09:07.900Z,2.20
2022-08-09T00:11:58.611Z,2.10
2022-08-09T00:14:37.793Z,2.40
2022-08-09T00:17:09.568Z,2.40
2022-08-09T00:20:00.227Z,2.80
2022-08-09T00:22:35.017Z,2.20
2022-08-09T00:25:12.704Z,2.20
2022-08-09T00:27:47.922Z,2.60
2022-08-09T00:30:26.189Z,1.90
2022-08-09T00:32:56.688Z,2.00
2022-08-09T00:35:43.269Z,2.80
2022-08-09T00:38:15.278Z,2.80
2022-08-09T00:40:52.476Z,2.20
2022-08-09T00:44:10.202Z,4.40
2022-08-09T00:47:33.207Z,2.10
2022-08-09T00:50:14.310Z,2.30
2022-08-09T00:52:47.884Z,1.90
2022-08-09T00:56:03.000Z,2.00
2022-08-09T00:58:36.066Z,2.10
2022-08-09T01:01:32.306Z,3.00
2022-08-09T01:04:09.299Z,3.20
2022-08-09T01:07:19.496Z,2.10
2022-08-09T01:10:51.908Z,1.80
2022-08-09T01:13:59.258Z,2.30
2022-08-09T01:16:47.260Z,2.20
2022-08-09T01:19:51.765Z,2.10
2022-08-09T01:22:45.402Z,2.10
2022-08-09T01:25:37.372Z,2.50
2022-08-09T01:28:14.150Z,2.10
2022-08-09T01:30:51.921Z,2.30
2022-08-09T01:33:27.985Z,2.10
2022-08-09T01:36:15.666Z,1.80
2022-08-09T01:38:49.104Z,2.10
2022-08-09T01:41:31.730Z,2.40
2022-08-09T01:44:06.488Z,2.50
2022-08-09T01:47:31.403Z,2.40
2022-08-09T01:50:06.749Z,2.20
2022-08-09T01:52:41.451Z,2.10
2022-08-09T01:55:14.655Z,2.10
2022-08-09T01:57:52.868Z,2.00
2022-08-09T02:00:35.533Z,2.30
2022-08-09T02:03:11.344Z,2.00
2022-08-09T02:06:04.237Z,2.00
2022-08-09T02:08:58.035Z,1.60
2022-08-09T02:11:42.479Z,2.10
2022-08-09T02:14:26.567Z,2.00
2022-08-09T02:17:59.261Z,2.10
2022-08-09T02:20:09.345Z,2.20
2022-08-09T02:22:46.653Z,1.70
2022-08-09T02:25:22.487Z,2.10
2022-08-09T02:28:33.121Z,2.60
2022-08-09T02:31:06.683Z,1.70
2022-08-09T02:34:07.492Z,2.10
2022-08-09T02:36:37.768Z,1.80
2022-08-09T02:39:20.070Z,1.70
2022-08-09T02:42:19.028Z,1.80
2022-08-09T02:45:09.568Z,2.00
2022-08-09T02:47:57.351Z,2.00
2022-08-09T02:50:37.713Z,2.40
2022-08-09T02:53:26.197Z,1.90
2022-08-09T02:56:01.955Z,1.70
2022-08-09T02:58:37.219Z,2.50
2022-08-09T03:01:15.153Z,2.90
2022-08-09T03:04:17.873Z,2.00
2022-08-09T03:06:46.765Z,1.90
2022-08-09T03:09:20.972Z,2.30
2022-08-09T03:12:08.413Z,2.10
2022-08-09T03:14:45.785Z,2.10
2022-08-09T03:17:26.735Z,1.90
2022-08-09T03:20:05.204Z,2.00
2022-08-09T03:22:56.931Z,2.00
2022-08-09T03:25:58.093Z,2.30
2022-08-09T03:28:25.152Z,2.00
2022-08-09T03:30:57.070Z,2.00
2022-08-09T03:33:54.696Z,2.10
2022-08-09T03:36:21.009Z,1.80
2022-08-09T03:39:01.054Z,3.10
2022-08-09T03:41:45.854Z,2.20
2022-08-09T03:44:19.848Z,2.20
2022-08-09T03:46:58.968Z,2.10
2022-08-09T03:49:36.944Z,1.90
2022-08-09T03:52:13.108Z,1.80
2022-08-09T03:54:45.909Z,2.50
2022-08-09T03:57:23.197Z,2.10
2022-08-09T04:00:01.256Z,2.30
2022-08-09T04:02:45.673Z,1.80
2022-08-09T04:05:27.336Z,2.30
2022-08-09T04:07:58.953Z,2.10
2022-08-09T04:10:30.569Z,2.10
2022-08-09T04:13:04.087Z,2.30
2022-08-09T04:16:17.965Z,2.00
2022-08-09T04:18:34.104Z,2.10
2022-08-09T04:21:07.182Z,1.90
2022-08-09T04:23:38.843Z,2.20
2022-08-09T04:26:13.384Z,1.90
2022-08-09T04:28:47.471Z,2.10
2022-08-09T04:31:23.376Z,2.30
2022-08-09T04:33:59.534Z,1.90
2022-08-09T04:36:34.072Z,2.40
2022-08-09T04:39:10.662Z,2.30
2022-08-09T04:41:45.639Z,2.10
2022-08-09T04:44:20.606Z,1.90
2022-08-09T04:46:59.387Z,2.30
2022-08-09T04:49:54.259Z,2.10
2022-08-09T04:52:28.080Z,2.30
2022-08-09T04:55:00.416Z,2.90
2022-08-09T04:57:54.394Z,2.20
2022-08-09T05:00:31.881Z,2.40
2022-08-09T05:03:30.254Z,2.10
2022-08-09T05:06:06.842Z,2.40
2022-08-09T05:08:43.720Z,2.30
2022-08-09T05:11:18.085Z,2.10
2022-08-09T05:13:51.898Z,2.60
2022-08-09T05:16:31.523Z,2.20
2022-08-09T05:19:02.767Z,3.20
2022-08-09T05:21:36.640Z,2.40
2022-08-09T05:24:18.347Z,3.00
2022-08-09T05:26:50.814Z,2.00
2022-08-09T05:29:22.149Z,2.50
2022-08-09T05:32:00.607Z,2.10
2022-08-09T05:34:33.199Z,2.10
2022-08-09T05:37:11.541Z,2.00
2022-08-09T05:39:44.959Z,2.20
2022-08-09T05:42:21.866Z,2.10
2022-08-09T05:45:55.732Z,2.40
2022-08-09T05:48:32.883Z,2.90
2022-08-09T05:51:16.866Z,1.90
2022-08-09T05:53:57.641Z,2.00
2022-08-09T05:56:33.086Z,2.30
2022-08-09T05:59:04.421Z,2.70
2022-08-09T06:01:42.767Z,2.70
2022-08-09T06:04:23.305Z,2.20
2022-08-09T06:06:56.913Z,1.80
2022-08-09T06:09:54.102Z,1.90
2022-08-09T06:12:22.131Z,1.90
2022-08-09T06:15:01.302Z,2.40
2022-08-09T06:17:39.726Z,1.70
2022-08-09T06:20:12.854Z,1.80
2022-08-09T06:22:50.352Z,2.40
2022-08-09T06:25:23.457Z,2.00
2022-08-09T06:27:53.142Z,3.20
2022-08-09T06:30:23.054Z,2.00
2022-08-09T06:33:13.179Z,1.80
2022-08-09T06:35:57.095Z,1.90
2022-08-09T06:38:32.219Z,2.30
2022-08-09T06:41:18.250Z,2.00
2022-08-09T06:43:50.618Z,1.80
2022-08-09T06:46:40.485Z,2.10
2022-08-09T06:49:10.996Z,2.40
2022-08-09T06:51:42.325Z,2.10
2022-08-09T06:54:14.912Z,1.70
2022-08-09T06:56:47.116Z,1.60
2022-08-09T07:00:52.109Z,2.10
2022-08-09T07:02:08.300Z,1.80
2022-08-09T07:04:41.831Z,1.70
2022-08-09T07:08:00.201Z,2.20
2022-08-09T07:10:29.693Z,2.20
2022-08-09T07:22:36.318Z,2.10
2022-08-09T07:25:32.831Z,2.00
2022-08-09T07:28:19.314Z,2.00
2022-08-09T07:31:27.943Z,2.40
2022-08-09T07:34:06.126Z,2.10
2022-08-09T07:36:47.388Z,2.00
2022-08-09T07:42:55.707Z,2.20
2022-08-09T07:46:31.113Z,2.00
2022-08-09T07:49:01.761Z,1.90
2022-08-09T07:56:36.891Z,1.60
2022-08-09T07:59:14.161Z,2.50
2022-08-09T08:01:58.072Z,2.30
2022-08-09T08:04:31.723Z,1.70
2022-08-09T08:07:15.468Z,1.90
2022-08-09T08:10:08.765Z,1.90
2022-08-09T08:12:45.418Z,1.70
2022-08-09T08:15:23.239Z,2.60
2022-08-09T08:17:58.146Z,1.70
2022-08-09T08:20:32.646Z,1.60
2022-08-09T08:23:16.801Z,1.50
2022-08-09T08:26:06.497Z,1.70
2022-08-09T08:28:43.997Z,1.60
2022-08-09T08:31:16.101Z,1.70
2022-08-09T08:33:52.269Z,1.60
2022-08-09T08:36:34.892Z,1.50
2022-08-09T08:40:53.561Z,1.70
2022-08-09T08:46:32.033Z,1.70
2022-08-09T08:49:04.528Z,1.60
2022-08-09T08:51:38.790Z,2.00
2022-08-09T08:54:20.654Z,1.90
2022-08-09T08:57:11.344Z,1.80
2022-08-09T08:59:46.426Z,1.70
2022-08-09T09:02:31.481Z,1.30
2022-08-09T09:05:09.864Z,1.50
2022-08-09T09:07:45.119Z,1.60
2022-08-09T09:10:17.830Z,1.80
2022-08-09T09:12:51.603Z,1.60
2022-08-09T09:15:28.337Z,1.70
2022-08-09T09:17:59.276Z,2.00
2022-08-09T09:20:36.949Z,1.60
2022-08-09T09:23:07.442Z,1.50
2022-08-09T09:26:01.879Z,1.80
2022-08-09T09:28:39.073Z,1.60
2022-08-09T09:32:05.954Z,1.50
2022-08-09T09:34:24.106Z,2.00
2022-08-09T09:37:12.956Z,2.30
2022-08-09T09:39:57.007Z,1.80
2022-08-09T09:42:31.181Z,1.90
2022-08-09T09:46:39.078Z,1.90
2022-08-09T09:48:41.053Z,1.60
2022-08-09T09:51:26.161Z,2.10
2022-08-09T09:54:20.284Z,1.80
2022-08-09T09:59:47.176Z,1.80
2022-08-09T10:02:30.297Z,1.60
2022-08-09T10:05:11.896Z,1.90
2022-08-09T10:08:10.892Z,1.90
2022-08-09T10:10:40.654Z,1.70
2022-08-09T10:13:24.886Z,1.90
2022-08-09T10:16:54.727Z,1.60
2022-08-09T10:18:59.899Z,2.00
2022-08-09T10:21:37.093Z,2.10
2022-08-09T10:24:10.073Z,1.90
2022-08-09T10:26:50.026Z,1.80
2022-08-09T10:30:22.160Z,1.80
2022-08-09T10:35:13.221Z,1.70
2022-08-09T10:37:44.694Z,2.10
2022-08-09T10:40:34.704Z,1.70
2022-08-09T11:24:00.339Z,1.50
2022-08-09T11:26:47.211Z,1.80
2022-08-09T11:30:05.624Z,1.80
2022-08-09T11:33:01.808Z,2.20
2022-08-09T11:35:50.255Z,1.60
2022-08-09T11:38:32.349Z,1.40
2022-08-09T11:41:38.180Z,2.20
2022-08-09T11:44:13.513Z,1.60
2022-08-09T11:47:35.400Z,1.70
2022-08-09T11:50:55.557Z,1.40
2022-08-09T11:53:21.146Z,1.70
2022-08-09T11:56:02.334Z,1.20
2022-08-09T11:59:01.570Z,1.40
2022-08-09T12:02:00.913Z,1.70
2022-08-09T12:04:32.435Z,1.60
2022-08-09T12:07:09.783Z,1.90
2022-08-09T12:09:40.658Z,2.50
2022-08-09T12:12:28.800Z,1.50
2022-08-09T12:15:48.439Z,1.50
2022-08-09T12:18:29.889Z,1.00
2022-08-09T12:21:03.139Z,1.50
2022-08-09T12:23:56.128Z,1.80
2022-08-09T12:26:26.593Z,1.40
2022-08-09T12:29:29.445Z,1.80
2022-08-09T12:32:02.584Z,1.10
2022-08-09T12:34:39.883Z,1.50
2022-08-09T12:37:23.741Z,2.50
2022-08-09T12:40:12.182Z,1.20
2022-08-09T12:43:05.395Z,1.10
2022-08-09T12:46:32.565Z,1.20
2022-08-09T12:52:44.274Z,1.50
2022-08-09T12:59:57.775Z,1.40
2022-08-09T13:50:54.548Z,1.80
2022-08-09T13:53:57.438Z,1.90
2022-08-09T13:56:50.133Z,2.20
2022-08-09T14:00:05.731Z,2.40
2022-08-09T14:06:02.657Z,1.40
2022-08-09T14:08:37.311Z,2.00
2022-08-09T14:11:16.169Z,2.20
2022-08-09T14:14:24.006Z,1.80
2022-08-09T14:16:42.335Z,4.00
2022-08-09T14:19:13.139Z,3.00
2022-08-09T14:21:43.588Z,3.90
2022-08-09T14:24:35.898Z,1.90
2022-08-09T14:27:19.997Z,1.60
2022-08-09T14:30:37.434Z,2.00
2022-08-09T14:32:47.183Z,2.80
2022-08-09T14:35:52.629Z,1.80
2022-08-09T14:38:33.355Z,1.80
2022-08-09T14:41:34.797Z,2.00
2022-08-09T14:43:59.289Z,15.20
2022-08-09T14:46:56.031Z,2.00
2022-08-09T14:50:17.401Z,1.80
2022-08-09T14:53:14.049Z,1.60
2022-08-09T14:55:50.508Z,1.50
2022-08-09T14:58:24.265Z,2.00
2022-08-09T15:00:57.771Z,1.70
2022-08-09T15:03:30.624Z,2.40
2022-08-09T15:06:04.215Z,2.50
2022-08-09T15:08:35.221Z,2.20
2022-08-09T15:11:07.415Z,2.50
2022-08-09T15:13:48.581Z,2.10
2022-08-09T15:16:31.447Z,2.30
2022-08-09T15:19:15.916Z,2.20
2022-08-09T15:22:06.740Z,2.50
2022-08-09T15:24:59.533Z,1.90
2022-08-09T15:28:35.536Z,3.00
2022-08-09T15:31:40.995Z,2.40
2022-08-09T15:41:33.597Z,2.10
2022-08-09T15:48:29.021Z,2.00
2022-08-09T15:51:30.162Z,2.10
2022-08-09T16:20:16.323Z,2.00
2022-08-09T16:22:56.060Z,2.10
2022-08-09T16:25:49.885Z,2.10
2022-08-09T16:28:25.512Z,1.90
2022-08-09T16:31:15.848Z,2.30
2022-08-09T16:33:47.060Z,2.30
2022-08-09T16:36:40.864Z,2.30
2022-08-09T16:39:39.996Z,2.30
2022-08-09T16:42:57.055Z,2.50
2022-08-09T16:45:53.483Z,2.80
2022-08-09T16:48:43.283Z,3.40
2022-08-09T16:51:17.989Z,4.90
2022-08-09T16:54:16.465Z,3.20
2022-08-09T16:56:53.169Z,2.90
2022-08-09T16:59:22.599Z,3.50
2022-08-09T17:01:54.960Z,2.30
2022-08-09T17:04:29.765Z,3.70
2022-08-09T17:08:46.924Z,2.70
2022-08-09T17:09:50.694Z,2.10
2022-08-09T17:12:21.502Z,1.60
2022-08-09T17:14:58.357Z,1.80
2022-08-09T17:17:30.794Z,2.10
2022-08-09T17:20:32.428Z,1.80
2022-08-09T17:23:14.751Z,2.20
2022-08-09T17:25:52.777Z,3.60
2022-08-09T17:28:25.125Z,3.70
2022-08-09T17:30:57.215Z,3.20
2022-08-09T17:33:26.318Z,6.30
2022-08-09T17:36:05.776Z,6.90
2022-08-09T17:38:39.537Z,7.00
2022-08-09T17:41:10.561Z,4.40
2022-08-09T17:43:47.118Z,6.50
2022-08-09T17:46:34.240Z,4.30
2022-08-09T17:49:05.467Z,3.30
2022-08-09T17:51:40.266Z,4.10
2022-08-09T17:54:13.103Z,4.60
2022-08-09T17:56:47.015Z,3.60
2022-08-09T17:59:20.181Z,3.10
2022-08-09T18:02:07.391Z,3.90
2022-08-09T18:04:52.011Z,2.90
2022-08-09T18:07:30.320Z,3.00
2022-08-09T18:10:12.078Z,2.50
2022-08-09T18:13:38.924Z,2.60
2022-08-09T18:16:08.086Z,3.20
2022-08-09T18:18:43.347Z,3.10
2022-08-09T18:21:23.512Z,4.80
2022-08-09T18:24:09.975Z,4.00
2022-08-09T18:26:46.290Z,2.70
2022-08-09T18:30:41.746Z,3.60
2022-08-09T18:32:09.566Z,5.20
2022-08-09T18:34:40.036Z,4.30
2022-08-09T18:37:47.175Z,4.20
2022-08-09T18:40:04.297Z,4.50
2022-08-09T18:42:38.001Z,5.00
2022-08-09T18:46:47.909Z,4.30
2022-08-09T18:48:34.069Z,3.90
2022-08-09T18:51:05.904Z,4.40
2022-08-09T18:53:59.714Z,6.80
2022-08-09T18:56:29.728Z,6.20
2022-08-09T18:59:01.259Z,6.00
2022-08-09T19:01:32.187Z,6.20
2022-08-09T19:04:17.867Z,6.30
2022-08-09T19:07:06.012Z,7.70
2022-08-09T19:10:13.927Z,5.70
2022-08-09T19:12:32.174Z,4.00
2022-08-09T19:15:08.421Z,3.30
2022-08-09T19:17:54.668Z,3.10
2022-08-09T19:20:34.068Z,2.40
2022-08-09T19:23:06.617Z,2.80
2022-08-09T19:26:01.520Z,2.90
2022-08-09T19:28:30.002Z,3.80
2022-08-09T19:31:01.154Z,3.60
2022-08-09T19:33:34.962Z,3.70
2022-08-09T19:36:07.164Z,3.90
2022-08-09T19:38:42.947Z,5.10
2022-08-09T19:41:33.037Z,5.80
2022-08-09T19:44:06.541Z,5.00
2022-08-09T19:47:29.000Z,4.30
2022-08-09T19:50:08.044Z,5.70
2022-08-09T19:52:54.083Z,6.00
2022-08-09T19:55:30.507Z,6.00
2022-08-09T19:58:16.138Z,6.90
2022-08-09T20:00:48.184Z,5.70
2022-08-09T20:04:10.665Z,5.60
2022-08-09T20:06:10.529Z,5.60
2022-08-09T20:08:56.702Z,4.20
2022-08-09T20:11:42.925Z,4.40
2022-08-09T20:14:17.173Z,3.40
2022-08-09T20:16:53.279Z,3.30
2022-08-09T20:19:47.567Z,2.90
2022-08-09T20:22:18.475Z,2.90
2022-08-09T20:24:53.521Z,3.80
2022-08-09T20:27:24.885Z,3.10
2022-08-09T20:30:02.642Z,3.30
2022-08-09T20:32:34.115Z,3.30
2022-08-09T20:35:04.054Z,3.80
2022-08-09T20:38:21.018Z,3.00
2022-08-09T20:40:33.418Z,3.40
2022-08-09T20:43:19.030Z,2.70
2022-08-09T20:50:47.585Z,3.60
2022-08-09T20:53:35.534Z,3.70
2022-08-09T20:56:21.679Z,3.70
2022-08-09T20:59:24.883Z,3.50
2022-08-09T21:03:10.169Z,4.20
2022-08-09T21:05:59.707Z,5.30
2022-08-09T21:08:36.515Z,5.20
2022-08-09T21:14:00.498Z,4.20
2022-08-09T21:16:35.152Z,7.20
2022-08-09T21:20:19.097Z,12.60
2022-08-09T21:22:05.141Z,10.80
2022-08-09T21:25:14.158Z,9.00
2022-08-09T21:27:52.535Z,8.00
2022-08-09T21:30:40.357Z,6.30
2022-08-09T21:33:14.902Z,6.30
2022-08-09T21:35:54.784Z,4.90
2022-08-09T21:38:31.637Z,3.90
2022-08-09T21:41:08.400Z,3.30
2022-08-09T21:43:56.683Z,6.90
2022-08-09T21:46:37.168Z,3.60
2022-08-09T21:49:07.329Z,4.20
2022-08-09T21:51:43.919Z,3.50
2022-08-09T21:54:21.586Z,3.20
2022-08-09T21:56:54.379Z,3.90
2022-08-09T21:59:29.252Z,3.80
2022-08-09T22:02:36.481Z,3.20
2022-08-09T22:05:16.846Z,2.90
2022-08-09T22:07:57.705Z,3.10
2022-08-09T22:10:33.279Z,3.00
2022-08-09T22:13:07.655Z,3.30
2022-08-09T22:15:42.222Z,4.30
2022-08-09T22:18:14.182Z,3.50
2022-08-09T22:20:47.378Z,3.10
2022-08-09T22:23:25.413Z,3.20
2022-08-09T22:26:07.260Z,5.40
2022-08-09T22:28:47.254Z,7.80
2022-08-09T22:31:27.697Z,4.30
2022-08-09T22:34:02.383Z,3.60
2022-08-09T22:36:37.360Z,4.30
2022-08-09T22:39:46.845Z,4.60
2022-08-09T22:42:20.734Z,4.80
2022-08-09T22:45:00.030Z,5.70
2022-08-09T22:48:11.474Z,5.10
2022-08-09T22:50:36.124Z,4.70
2022-08-09T22:53:09.281Z,4.10
2022-08-09T22:56:30.806Z,4.70
2022-08-09T22:58:37.216Z,4.80
2022-08-09T23:01:12.344Z,6.00
2022-08-09T23:04:03.782Z,5.00
2022-08-09T23:06:53.807Z,4.70
2022-08-09T23:09:36.101Z,5.30
2022-08-09T23:12:12.574Z,6.20
2022-08-09T23:17:22.401Z,5.40
2022-08-09T23:20:00.643Z,7.20
2022-08-09T23:22:51.258Z,19.30
2022-08-09T23:25:24.081Z,17.60
2022-08-09T23:28:15.429Z,13.40
2022-08-09T23:30:52.098Z,11.00
2022-08-09T23:33:35.338Z,12.20
2022-08-09T23:36:22.276Z,15.30
2022-08-09T23:39:02.197Z,9.50
2022-08-09T23:41:31.576Z,7.10
2022-08-09T23:44:05.862Z,5.60
2022-08-09T23:46:43.356Z,4.10
2022-08-09T23:49:14.089Z,3.70
2022-08-09T23:51:54.691Z,4.40
2022-08-09T23:54:27.562Z,4.40
2022-08-09T23:57:01.104Z,4.90
2022-08-09T23:59:51.775Z,4.70
